PWSweather.com
Personal Weather Stations
Station Observations
KVAGLENALL
West Henrico, Glen Allen, VA 23060-6503

West HenricoGlen Allen, VA 23060-6503

Lat: 37.6554, Lon: -77.5693

Elevation: 273

Station Type: Davis Vantage Pro II

www.glenallenweather.com

High Low Average
Temperature 45.6°F7.6°C 34.4°F1.3°C 38.9°F3.8°C
Dew Point 44.3°F6.8°C 27.1°F-2.7°C 35.0°F1.7°C
Winds 9.0 mph 14.5 kmh Calm Calm 2.0 mph SE3.2 kmh SE
Wind Gusts 12.1 mph19.5 kmh -- 4.0 mph6.4 kmh
Humidity 96% 69% 86%
Pressure 30.45 in1031.2 mb 29.96 in1014.6 mb -
Precipitation 0.00 in0.0 mm - -
Hour Temp Dew Point Humidity Winds Wind Gusts Pressure Precip Precip Rate Daily Precip Total
12:00 AM 36.4°F2.4°C 27.2°F-2.7°C 69% 4.0 mph NE6.4 kmh NE 8.1 mph13.0 kmh 30.45 in1031.2 mb 0.00 in0.0 mm 0.00 in0.0 mm 0.00 in0.0 mm
12:15 AM 36.4°F2.4°C 27.2°F-2.7°C 69% 3.0 mph E4.8 kmh E 5.1 mph8.2 kmh 30.45 in1031.2 mb 0.00 in0.0 mm 0.00 in0.0 mm 0.00 in0.0 mm
12:30 AM 36.5°F2.5°C 27.3°F-2.6°C 69% 4.0 mph ESE6.4 kmh ESE 8.1 mph13.0 kmh 30.44 in1030.8 mb 0.00 in0.0 mm 0.00 in0.0 mm 0.00 in0.0 mm
12:45 AM 36.4°F2.4°C 27.2°F-2.7°C 69% 3.0 mph ESE4.8 kmh ESE 6.1 mph9.8 kmh 30.43 in1030.5 mb 0.00 in0.0 mm 0.00 in0.0 mm 0.00 in0.0 mm
01:00 AM 36.5°F2.5°C 27.3°F-2.6°C 69% 4.0 mph E6.4 kmh E 5.1 mph8.2 kmh 30.45 in1031.2 mb 0.00 in0.0 mm 0.00 in0.0 mm 0.00 in0.0 mm
01:15 AM 36.5°F2.5°C 27.3°F-2.6°C 69% 2.0 mph ESE3.2 kmh ESE 6.1 mph9.8 kmh 30.45 in1031.2 mb 0.00 in0.0 mm 0.00 in0.0 mm 0.00 in0.0 mm
01:30 AM 36.4°F2.4°C 27.2°F-2.7°C 69% 4.0 mph SE6.4 kmh SE 4.0 mph6.4 kmh 30.44 in1030.8 mb 0.00 in0.0 mm 0.00 in0.0 mm 0.00 in0.0 mm
01:45 AM 36.3°F2.4°C 27.1°F-2.7°C 69% 8.0 mph E12.9 kmh E 8.1 mph13.0 kmh 30.44 in1030.8 mb 0.00 in0.0 mm 0.00 in0.0 mm 0.00 in0.0 mm
02:00 AM 36.4°F2.4°C 27.6°F-2.4°C 70% 1.0 mph ESE1.6 kmh ESE 1.0 mph1.6 kmh 30.45 in1031.2 mb 0.00 in0.0 mm 0.00 in0.0 mm 0.00 in0.0 mm
02:15 AM 36.3°F2.4°C 28.1°F-2.2°C 72% 2.0 mph SE3.2 kmh SE 5.1 mph8.2 kmh 30.44 in1030.8 mb 0.00 in0.0 mm 0.00 in0.0 mm 0.00 in0.0 mm
02:30 AM 36.0°F2.2°C 28.8°F-1.8°C 75% 3.0 mph NE4.8 kmh NE 6.1 mph9.8 kmh 30.42 in1030.1 mb 0.00 in0.0 mm 0.00 in0.0 mm 0.00 in0.0 mm
02:45 AM 35.7°F2.1°C 28.9°F-1.7°C 76% 6.0 mph E9.7 kmh E 6.1 mph9.8 kmh 30.42 in1030.1 mb 0.00 in0.0 mm 0.00 in0.0 mm 0.00 in0.0 mm
03:00 AM 35.6°F2.0°C 28.8°F-1.8°C 76% 2.0 mph E3.2 kmh E 4.0 mph6.4 kmh 30.42 in1030.1 mb 0.00 in0.0 mm 0.00 in0.0 mm 0.00 in0.0 mm
03:15 AM 35.6°F2.0°C 28.5°F-1.9°C 75% 2.0 mph E3.2 kmh E 6.1 mph9.8 kmh 30.40 in1029.5 mb 0.00 in0.0 mm 0.00 in0.0 mm 0.00 in0.0 mm
03:30 AM 35.6°F2.0°C 29.1°F-1.6°C 77% 1.0 mph NNE1.6 kmh NNE 3.0 mph4.8 kmh 30.41 in1029.8 mb 0.00 in0.0 mm 0.00 in0.0 mm 0.00 in0.0 mm
03:45 AM 35.3°F1.8°C 29.1°F-1.6°C 78% 3.0 mph ESE4.8 kmh ESE 7.1 mph11.4 kmh 30.39 in1029.1 mb 0.00 in0.0 mm 0.00 in0.0 mm 0.00 in0.0 mm
04:00 AM 35.2°F1.8°C 29.0°F-1.7°C 78% 3.0 mph ESE4.8 kmh ESE 6.1 mph9.8 kmh 30.38 in1028.8 mb 0.00 in0.0 mm 0.00 in0.0 mm 0.00 in0.0 mm
04:15 AM 35.3°F1.8°C 29.1°F-1.6°C 78% 7.0 mph ESE11.3 kmh ESE 8.1 mph13.0 kmh 30.37 in1028.4 mb 0.00 in0.0 mm 0.00 in0.0 mm 0.00 in0.0 mm
04:30 AM 35.2°F1.8°C 29.0°F-1.7°C 78% 3.0 mph ENE4.8 kmh ENE 3.0 mph4.8 kmh 30.37 in1028.4 mb 0.00 in0.0 mm 0.00 in0.0 mm 0.00 in0.0 mm
04:45 AM 35.3°F1.8°C 28.8°F-1.8°C 77% 1.0 mph SE1.6 kmh SE 4.0 mph6.4 kmh 30.36 in1028.1 mb 0.00 in0.0 mm 0.00 in0.0 mm 0.00 in0.0 mm
05:00 AM 35.3°F1.8°C 28.8°F-1.8°C 77% 3.0 mph E4.8 kmh E 9.1 mph14.6 kmh 30.34 in1027.4 mb 0.00 in0.0 mm 0.00 in0.0 mm 0.00 in0.0 mm
05:15 AM 35.1°F1.7°C 28.9°F-1.7°C 78% 1.0 mph E1.6 kmh E 4.0 mph6.4 kmh 30.34 in1027.4 mb 0.00 in0.0 mm 0.00 in0.0 mm 0.00 in0.0 mm
05:30 AM 35.0°F1.7°C 28.8°F-1.8°C 78% 3.0 mph E4.8 kmh E 6.1 mph9.8 kmh 30.33 in1027.1 mb 0.00 in0.0 mm 0.00 in0.0 mm 0.00 in0.0 mm
05:45 AM 35.0°F1.7°C 28.8°F-1.8°C 78% 4.0 mph SE6.4 kmh SE 6.1 mph9.8 kmh 30.32 in1026.8 mb 0.00 in0.0 mm 0.00 in0.0 mm 0.00 in0.0 mm
06:00 AM 34.8°F1.6°C 28.6°F-1.9°C 78% 1.0 mph E1.6 kmh E 4.0 mph6.4 kmh 30.31 in1026.4 mb 0.00 in0.0 mm 0.00 in0.0 mm 0.00 in0.0 mm
06:15 AM 34.5°F1.4°C 28.3°F-2.1°C 78% 3.0 mph ESE4.8 kmh ESE 3.0 mph4.8 kmh 30.31 in1026.4 mb 0.00 in0.0 mm 0.00 in0.0 mm 0.00 in0.0 mm
06:30 AM 34.5°F1.4°C 28.6°F-1.9°C 79% Calm Calm 2.0 mph3.2 kmh 30.30 in1026.1 mb 0.00 in0.0 mm 0.00 in0.0 mm 0.00 in0.0 mm
06:45 AM 34.7°F1.5°C 28.8°F-1.8°C 79% 1.0 mph NE1.6 kmh NE 1.0 mph1.6 kmh 30.29 in1025.7 mb 0.00 in0.0 mm 0.00 in0.0 mm 0.00 in0.0 mm
07:00 AM 34.6°F1.4°C 29.1°F-1.6°C 80% 2.0 mph E3.2 kmh E 2.0 mph3.2 kmh 30.29 in1025.7 mb 0.00 in0.0 mm 0.00 in0.0 mm 0.00 in0.0 mm
07:15 AM 34.7°F1.5°C 29.2°F-1.6°C 80% 1.0 mph ESE1.6 kmh ESE 2.0 mph3.2 kmh 30.29 in1025.7 mb 0.00 in0.0 mm 0.00 in0.0 mm 0.00 in0.0 mm
07:30 AM 34.5°F1.4°C 29.3°F-1.5°C 81% 1.0 mph ESE1.6 kmh ESE 2.0 mph3.2 kmh 30.28 in1025.4 mb 0.00 in0.0 mm 0.00 in0.0 mm 0.00 in0.0 mm
07:45 AM 34.4°F1.3°C 29.5°F-1.4°C 82% Calm Calm -- 30.28 in1025.4 mb 0.00 in0.0 mm 0.00 in0.0 mm 0.00 in0.0 mm
08:00 AM 35.0°F1.7°C 29.7°F-1.3°C 81% 2.0 mph ENE3.2 kmh ENE 2.0 mph3.2 kmh 30.28 in1025.4 mb 0.00 in0.0 mm 0.00 in0.0 mm 0.00 in0.0 mm
08:15 AM 35.7°F2.1°C 29.8°F-1.2°C 79% 2.0 mph NE3.2 kmh NE 2.0 mph3.2 kmh 30.27 in1025.1 mb 0.00 in0.0 mm 0.00 in0.0 mm 0.00 in0.0 mm
08:30 AM 36.5°F2.5°C 30.3°F-0.9°C 78% 3.0 mph NNE4.8 kmh NNE 3.0 mph4.8 kmh 30.26 in1024.7 mb 0.00 in0.0 mm 0.00 in0.0 mm 0.00 in0.0 mm
08:45 AM 37.3°F2.9°C 30.8°F-0.7°C 77% 1.0 mph ESE1.6 kmh ESE 3.0 mph4.8 kmh 30.26 in1024.7 mb 0.00 in0.0 mm 0.00 in0.0 mm 0.00 in0.0 mm
09:00 AM 37.2°F2.9°C 31.0°F-0.6°C 78% Calm Calm 3.0 mph4.8 kmh 30.25 in1024.4 mb 0.00 in0.0 mm 0.00 in0.0 mm 0.00 in0.0 mm
09:15 AM 37.6°F3.1°C 31.4°F-0.3°C 78% Calm Calm -- 30.24 in1024.0 mb 0.00 in0.0 mm 0.00 in0.0 mm 0.00 in0.0 mm
09:30 AM 38.0°F3.3°C 31.8°F-0.1°C 78% Calm Calm -- 30.23 in1023.7 mb 0.00 in0.0 mm 0.00 in0.0 mm 0.00 in0.0 mm
09:45 AM 38.5°F3.6°C 32.6°F0.3°C 79% Calm Calm 2.0 mph3.2 kmh 30.21 in1023.0 mb 0.00 in0.0 mm 0.00 in0.0 mm 0.00 in0.0 mm
10:00 AM 38.8°F3.8°C 33.5°F0.8°C 81% 2.0 mph ESE3.2 kmh ESE 3.0 mph4.8 kmh 30.20 in1022.7 mb 0.00 in0.0 mm 0.00 in0.0 mm 0.00 in0.0 mm
10:15 AM 38.6°F3.7°C 34.2°F1.2°C 84% 2.0 mph E3.2 kmh E 3.0 mph4.8 kmh 30.19 in1022.4 mb 0.01 in0.3 mm 0.04 in1.0 mm 0.01 in0.3 mm
10:30 AM 38.4°F3.6°C 34.9°F1.6°C 87% 2.0 mph E3.2 kmh E 2.0 mph3.2 kmh 30.18 in1022.0 mb 0.03 in0.8 mm 0.08 in2.0 mm 0.03 in0.8 mm
10:45 AM 38.2°F3.4°C 35.0°F1.7°C 88% 2.0 mph ENE3.2 kmh ENE 2.0 mph3.2 kmh 30.17 in1021.7 mb 0.05 in1.3 mm 0.08 in2.0 mm 0.05 in1.3 mm
11:00 AM 38.3°F3.5°C 35.6°F2.0°C 90% 1.0 mph ENE1.6 kmh ENE 2.0 mph3.2 kmh 30.16 in1021.3 mb 0.05 in1.3 mm 0.00 in0.0 mm 0.05 in1.3 mm
11:15 AM 38.3°F3.5°C 35.6°F2.0°C 90% Calm Calm 1.0 mph1.6 kmh 30.15 in1021.0 mb 0.06 in1.5 mm 0.04 in1.0 mm 0.06 in1.5 mm
11:30 AM 38.7°F3.7°C 36.3°F2.4°C 91% 1.0 mph E1.6 kmh E 2.0 mph3.2 kmh 30.14 in1020.7 mb 0.03 in0.8 mm 0.00 in0.0 mm 0.06 in1.5 mm
11:45 AM 39.5°F4.2°C 37.1°F2.8°C 91% 1.0 mph SE1.6 kmh SE 2.0 mph3.2 kmh 30.11 in1019.6 mb 0.04 in1.0 mm 0.04 in1.0 mm 0.07 in1.8 mm
12:00 PM 40.2°F4.6°C 38.1°F3.4°C 92% 2.0 mph S3.2 kmh S 6.1 mph9.8 kmh 30.11 in1019.6 mb 0.02 in0.5 mm 0.00 in0.0 mm 0.07 in1.8 mm
12:15 PM 40.8°F4.9°C 38.9°F3.8°C 93% 3.0 mph S4.8 kmh S 4.0 mph6.4 kmh 30.11 in1019.6 mb 0.02 in0.5 mm 0.00 in0.0 mm 0.07 in1.8 mm
12:30 PM 41.1°F5.1°C 39.2°F4.0°C 93% 1.0 mph WSW1.6 kmh WSW 3.0 mph4.8 kmh 30.08 in1018.6 mb 0.02 in0.5 mm 0.00 in0.0 mm 0.07 in1.8 mm
12:45 PM 41.5°F5.3°C 39.9°F4.4°C 94% 3.0 mph SSW4.8 kmh SSW 5.1 mph8.2 kmh 30.07 in1018.3 mb 0.03 in0.8 mm 0.04 in1.0 mm 0.08 in2.0 mm
01:00 PM 41.9°F5.5°C 40.3°F4.6°C 94% 1.0 mph WSW1.6 kmh WSW 5.1 mph8.2 kmh 30.07 in1018.3 mb 0.05 in1.3 mm 0.03 in0.8 mm 0.10 in2.5 mm
01:15 PM 42.0°F5.6°C 40.4°F4.7°C 94% 2.0 mph ESE3.2 kmh ESE 2.0 mph3.2 kmh 30.03 in1016.9 mb 0.06 in1.5 mm 0.04 in1.0 mm 0.11 in2.8 mm
01:30 PM 42.7°F5.9°C 41.4°F5.2°C 95% 1.0 mph S1.6 kmh S 3.0 mph4.8 kmh 30.02 in1016.6 mb 0.05 in1.3 mm 0.00 in0.0 mm 0.11 in2.8 mm
01:45 PM 43.3°F6.3°C 42.0°F5.6°C 95% 2.0 mph SE3.2 kmh SE 2.0 mph3.2 kmh 30.01 in1016.3 mb 0.05 in1.3 mm 0.00 in0.0 mm 0.11 in2.8 mm
02:00 PM 44.0°F6.7°C 42.7°F5.9°C 95% Calm Calm 2.0 mph3.2 kmh 29.99 in1015.6 mb 0.01 in0.3 mm 0.00 in0.0 mm 0.11 in2.8 mm
02:15 PM 45.0°F7.2°C 43.7°F6.5°C 95% 2.0 mph S3.2 kmh S 4.0 mph6.4 kmh 29.98 in1015.2 mb 0.01 in0.3 mm 0.00 in0.0 mm 0.11 in2.8 mm
02:30 PM 45.6°F7.6°C 44.3°F6.8°C 95% Calm Calm -- 29.97 in1014.9 mb 0.00 in0.0 mm 0.00 in0.0 mm 0.11 in2.8 mm
02:45 PM 45.4°F7.4°C 43.8°F6.6°C 94% 1.0 mph NW1.6 kmh NW 3.0 mph4.8 kmh 29.96 in1014.6 mb 0.01 in0.3 mm 0.04 in1.0 mm 0.12 in3.0 mm
03:00 PM 45.3°F7.4°C 43.7°F6.5°C 94% 4.0 mph NW6.4 kmh NW 6.1 mph9.8 kmh 29.97 in1014.9 mb 0.01 in0.3 mm 0.00 in0.0 mm 0.12 in3.0 mm
03:15 PM 43.8°F6.6°C 42.2°F5.7°C 94% 2.0 mph NW3.2 kmh NW 5.1 mph8.2 kmh 29.98 in1015.2 mb 0.01 in0.3 mm 0.00 in0.0 mm 0.12 in3.0 mm
03:30 PM 43.2°F6.2°C 41.6°F5.3°C 94% 1.0 mph NNW1.6 kmh NNW 5.1 mph8.2 kmh 29.98 in1015.2 mb 0.01 in0.3 mm 0.00 in0.0 mm 0.12 in3.0 mm
03:45 PM 42.6°F5.9°C 41.0°F5.0°C 94% 2.0 mph NW3.2 kmh NW 2.0 mph3.2 kmh 29.97 in1014.9 mb 0.01 in0.3 mm 0.00 in0.0 mm 0.12 in3.0 mm
04:00 PM 42.3°F5.7°C 40.7°F4.8°C 94% 2.0 mph NW3.2 kmh NW 2.0 mph3.2 kmh 29.97 in1014.9 mb 0.00 in0.0 mm 0.00 in0.0 mm 0.12 in3.0 mm
04:15 PM 41.8°F5.4°C 40.2°F4.6°C 94% Calm Calm 3.0 mph4.8 kmh 29.97 in1014.9 mb 0.00 in0.0 mm 0.00 in0.0 mm 0.12 in3.0 mm
04:30 PM 41.2°F5.1°C 39.6°F4.2°C 94% 2.0 mph NW3.2 kmh NW 5.1 mph8.2 kmh 29.98 in1015.2 mb 0.00 in0.0 mm 0.00 in0.0 mm 0.12 in3.0 mm
04:45 PM 40.9°F4.9°C 39.3°F4.1°C 94% 1.0 mph W1.6 kmh W 6.1 mph9.8 kmh 29.97 in1014.9 mb 0.00 in0.0 mm 0.00 in0.0 mm 0.12 in3.0 mm
05:00 PM 40.7°F4.8°C 39.1°F3.9°C 94% 1.0 mph WNW1.6 kmh WNW 4.0 mph6.4 kmh 29.99 in1015.6 mb 0.00 in0.0 mm 0.00 in0.0 mm 0.12 in3.0 mm
05:15 PM 40.0°F4.4°C 38.4°F3.6°C 94% 2.0 mph NNE3.2 kmh NNE 3.0 mph4.8 kmh 30.00 in1015.9 mb 0.00 in0.0 mm 0.00 in0.0 mm 0.12 in3.0 mm
05:30 PM 39.9°F4.4°C 38.6°F3.7°C 95% 1.0 mph WSW1.6 kmh WSW 2.0 mph3.2 kmh 29.99 in1015.6 mb 0.00 in0.0 mm 0.00 in0.0 mm 0.12 in3.0 mm
05:45 PM 40.2°F4.6°C 38.9°F3.8°C 95% 2.0 mph SW3.2 kmh SW 5.1 mph8.2 kmh 30.00 in1015.9 mb 0.00 in0.0 mm 0.00 in0.0 mm 0.12 in3.0 mm
06:00 PM 40.4°F4.7°C 39.1°F3.9°C 95% 3.0 mph WSW4.8 kmh WSW 5.1 mph8.2 kmh 30.01 in1016.3 mb 0.00 in0.0 mm 0.00 in0.0 mm 0.12 in3.0 mm
06:15 PM 40.8°F4.9°C 39.5°F4.2°C 95% 2.0 mph WSW3.2 kmh WSW 3.0 mph4.8 kmh 30.01 in1016.3 mb 0.00 in0.0 mm 0.00 in0.0 mm 0.12 in3.0 mm
06:30 PM 41.2°F5.1°C 39.9°F4.4°C 95% 3.0 mph W4.8 kmh W 4.0 mph6.4 kmh 30.03 in1016.9 mb 0.00 in0.0 mm 0.00 in0.0 mm 0.12 in3.0 mm
06:45 PM 41.3°F5.2°C 40.0°F4.4°C 95% 4.0 mph WSW6.4 kmh WSW 5.1 mph8.2 kmh 30.03 in1016.9 mb 0.02 in0.5 mm 0.08 in2.0 mm 0.14 in3.6 mm
07:00 PM 41.4°F5.2°C 40.1°F4.5°C 95% 3.0 mph WSW4.8 kmh WSW 4.0 mph6.4 kmh 30.03 in1016.9 mb 0.02 in0.5 mm 0.00 in0.0 mm 0.14 in3.6 mm
07:15 PM 41.4°F5.2°C 40.1°F4.5°C 95% 2.0 mph W3.2 kmh W 5.1 mph8.2 kmh 30.03 in1016.9 mb 0.02 in0.5 mm 0.00 in0.0 mm 0.14 in3.6 mm
07:30 PM 41.3°F5.2°C 40.0°F4.4°C 95% 3.0 mph WSW4.8 kmh WSW 3.0 mph4.8 kmh 30.04 in1017.3 mb 0.02 in0.5 mm 0.00 in0.0 mm 0.14 in3.6 mm
07:45 PM 41.3°F5.2°C 40.3°F4.6°C 96% 3.0 mph NW4.8 kmh NW 8.1 mph13.0 kmh 30.05 in1017.6 mb 0.02 in0.5 mm 0.00 in0.0 mm 0.14 in3.6 mm
08:00 PM 41.3°F5.2°C 40.0°F4.4°C 95% 1.0 mph WNW1.6 kmh WNW 2.0 mph3.2 kmh 30.05 in1017.6 mb 0.00 in0.0 mm 0.00 in0.0 mm 0.14 in3.6 mm
08:15 PM 41.3°F5.2°C 40.0°F4.4°C 95% 1.0 mph NW1.6 kmh NW 4.0 mph6.4 kmh 30.06 in1017.9 mb 0.00 in0.0 mm 0.00 in0.0 mm 0.14 in3.6 mm
08:30 PM 41.1°F5.1°C 40.1°F4.5°C 96% 1.0 mph N1.6 kmh N 3.0 mph4.8 kmh 30.09 in1019.0 mb 0.00 in0.0 mm 0.00 in0.0 mm 0.14 in3.6 mm
08:45 PM 40.9°F4.9°C 39.6°F4.2°C 95% 2.0 mph N3.2 kmh N 5.1 mph8.2 kmh 30.09 in1019.0 mb 0.00 in0.0 mm 0.00 in0.0 mm 0.14 in3.6 mm
09:00 PM 40.8°F4.9°C 39.5°F4.2°C 95% 3.0 mph N4.8 kmh N 4.0 mph6.4 kmh 30.11 in1019.6 mb 0.00 in0.0 mm 0.00 in0.0 mm 0.14 in3.6 mm
09:15 PM 40.8°F4.9°C 39.5°F4.2°C 95% 2.0 mph NE3.2 kmh NE 4.0 mph6.4 kmh 30.10 in1019.3 mb 0.00 in0.0 mm 0.00 in0.0 mm 0.14 in3.6 mm
09:30 PM 40.8°F4.9°C 39.5°F4.2°C 95% 2.0 mph NW3.2 kmh NW 4.0 mph6.4 kmh 30.11 in1019.6 mb 0.00 in0.0 mm 0.00 in0.0 mm 0.14 in3.6 mm
09:45 PM 40.8°F4.9°C 39.8°F4.3°C 96% 3.0 mph NNE4.8 kmh NNE 3.0 mph4.8 kmh 30.11 in1019.6 mb 0.00 in0.0 mm 0.00 in0.0 mm 0.14 in3.6 mm
10:00 PM 40.8°F4.9°C 39.8°F4.3°C 96% Calm Calm 4.0 mph6.4 kmh 30.13 in1020.3 mb 0.00 in0.0 mm 0.00 in0.0 mm 0.14 in3.6 mm
10:15 PM 40.6°F4.8°C 39.3°F4.1°C 95% 4.0 mph NE6.4 kmh NE 4.0 mph6.4 kmh 30.13 in1020.3 mb 0.01 in0.3 mm 0.04 in1.0 mm 0.15 in3.8 mm
10:30 PM 40.7°F4.8°C 38.8°F3.8°C 93% 3.0 mph NE4.8 kmh NE 9.1 mph14.6 kmh 30.14 in1020.7 mb 0.01 in0.3 mm 0.00 in0.0 mm 0.15 in3.8 mm
10:45 PM 40.6°F4.8°C 37.9°F3.3°C 90% 5.0 mph N8.0 kmh N 9.1 mph14.6 kmh 30.15 in1021.0 mb 0.01 in0.3 mm 0.00 in0.0 mm 0.15 in3.8 mm
11:00 PM 40.3°F4.6°C 37.3°F2.9°C 89% 9.0 mph N14.5 kmh N 9.1 mph14.6 kmh 30.15 in1021.0 mb 0.01 in0.3 mm 0.00 in0.0 mm 0.15 in3.8 mm
11:15 PM 40.1°F4.5°C 36.8°F2.7°C 88% 3.0 mph NE4.8 kmh NE 12.1 mph19.5 kmh 30.16 in1021.3 mb 0.01 in0.3 mm 0.00 in0.0 mm 0.15 in3.8 mm
11:30 PM 39.9°F4.4°C 36.6°F2.6°C 88% 5.0 mph NE8.0 kmh NE 6.1 mph9.8 kmh 30.16 in1021.3 mb 0.00 in0.0 mm 0.00 in0.0 mm 0.15 in3.8 mm
11:45 PM 39.7°F4.3°C 36.4°F2.4°C 88% 3.0 mph NW4.8 kmh NW 7.1 mph11.4 kmh 30.18 in1022.0 mb 0.00 in0.0 mm 0.00 in0.0 mm 0.15 in3.8 mm